sensor_id;sensor_type;location;lat;lon;timestamp;pressure;altitude;pressure_sealevel;temperature;humidity
63881;BME280;50046;46.672;11.152;2022-12-07T00:00:07;98089.28;;;-0.25;83.56
63881;BME280;50046;46.672;11.152;2022-12-07T00:00:18;98086.41;;;-0.23;83.86
63881;BME280;50046;46.672;11.152;2022-12-07T00:00:28;98090.47;;;-0.27;83.58
63881;BME280;50046;46.672;11.152;2022-12-07T00:00:38;98086.78;;;-0.26;83.81
63881;BME280;50046;46.672;11.152;2022-12-07T00:00:49;98084.53;;;-0.29;83.77
63881;BME280;50046;46.672;11.152;2022-12-07T00:01:14;98086.16;;;-0.28;83.63
63881;BME280;50046;46.672;11.152;2022-12-07T00:01:32;98092.91;;;-0.26;83.87
63881;BME280;50046;46.672;11.152;2022-12-07T00:01:44;98087.19;;;-0.29;84.12
63881;BME280;50046;46.672;11.152;2022-12-07T00:01:55;98091.03;;;-0.32;83.58
63881;BME280;50046;46.672;11.152;2022-12-07T00:02:05;98089.03;;;-0.30;83.99
63881;BME280;50046;46.672;11.152;2022-12-07T00:02:15;98092.25;;;-0.34;83.83
63881;BME280;50046;46.672;11.152;2022-12-07T00:02:26;98093.06;;;-0.34;83.68
63881;BME280;50046;46.672;11.152;2022-12-07T00:02:37;98093.69;;;-0.32;83.80
63881;BME280;50046;46.672;11.152;2022-12-07T00:02:47;98092.66;;;-0.31;84.11
63881;BME280;50046;46.672;11.152;2022-12-07T00:02:57;98090.88;;;-0.30;84.02
63881;BME280;50046;46.672;11.152;2022-12-07T00:03:08;98085.91;;;-0.33;84.12
63881;BME280;50046;46.672;11.152;2022-12-07T00:03:18;98079.78;;;-0.34;84.15
63881;BME280;50046;46.672;11.152;2022-12-07T00:03:28;98086.75;;;-0.33;84.40
63881;BME280;50046;46.672;11.152;2022-12-07T00:03:40;98089.03;;;-0.30;84.45
63881;BME280;50046;46.672;11.152;2022-12-07T00:03:53;98093.69;;;-0.32;84.36
63881;BME280;50046;46.672;11.152;2022-12-07T00:04:06;98094.50;;;-0.31;84.46
63881;BME280;50046;46.672;11.152;2022-12-07T00:04:17;98087.38;;;-0.31;84.42
63881;BME280;50046;46.672;11.152;2022-12-07T00:04:28;98082.91;;;-0.30;84.52
63881;BME280;50046;46.672;11.152;2022-12-07T00:04:38;98083.91;;;-0.31;84.29
63881;BME280;50046;46.672;11.152;2022-12-07T00:04:49;98088.38;;;-0.32;84.50
63881;BME280;50046;46.672;11.152;2022-12-07T00:04:59;98083.09;;;-0.32;84.37
63881;BME280;50046;46.672;11.152;2022-12-07T00:05:10;98089.84;;;-0.29;84.44
63881;BME280;50046;46.672;11.152;2022-12-07T00:05:20;98085.91;;;-0.33;84.66
63881;BME280;50046;46.672;11.152;2022-12-07T00:05:30;98081.47;;;-0.33;84.60
63881;BME280;50046;46.672;11.152;2022-12-07T00:05:41;98081.47;;;-0.33;84.66
63881;BME280;50046;46.672;11.152;2022-12-07T00:05:51;98078.59;;;-0.31;84.43
63881;BME280;50046;46.672;11.152;2022-12-07T00:06:03;98083.09;;;-0.32;84.46
63881;BME280;50046;46.672;11.152;2022-12-07T00:06:16;98078.16;;;-0.35;84.58
63881;BME280;50046;46.672;11.152;2022-12-07T00:06:27;98083.66;;;-0.36;84.40
63881;BME280;50046;46.672;11.152;2022-12-07T00:06:39;98078.81;;;-0.33;84.54
63881;BME280;50046;46.672;11.152;2022-12-07T00:06:51;98085.91;;;-0.33;84.51
63881;BME280;50046;46.672;11.152;2022-12-07T00:07:02;98087.75;;;-0.34;84.65
63881;BME280;50046;46.672;11.152;2022-12-07T00:07:14;98082.28;;;-0.32;84.45
63881;BME280;50046;46.672;11.152;2022-12-07T00:07:24;98084.47;;;-0.36;84.66
63881;BME280;50046;46.672;11.152;2022-12-07T00:07:34;98086.75;;;-0.33;84.42
63881;BME280;50046;46.672;11.152;2022-12-07T00:07:45;98082.06;;;-0.31;84.54
63881;BME280;50046;46.672;11.152;2022-12-07T00:07:55;98074.50;;;-0.34;84.36
63881;BME280;50046;46.672;11.152;2022-12-07T00:08:05;98083.91;;;-0.31;84.39
63881;BME280;50046;46.672;11.152;2022-12-07T00:08:16;98081.06;;;-0.30;84.48
63881;BME280;50046;46.672;11.152;2022-12-07T00:08:26;98085.75;;;-0.32;84.55
63881;BME280;50046;46.672;11.152;2022-12-07T00:08:38;98083.25;;;-0.33;84.64
63881;BME280;50046;46.672;11.152;2022-12-07T00:08:48;98086.94;;;-0.34;84.45
63881;BME280;50046;46.672;11.152;2022-12-07T00:08:59;98080.19;;;-0.37;84.38
63881;BME280;50046;46.672;11.152;2022-12-07T00:09:12;98082.69;;;-0.29;84.27
63881;BME280;50046;46.672;11.152;2022-12-07T00:09:23;98085.09;;;-0.34;84.53
63881;BME280;50046;46.672;11.152;2022-12-07T00:09:33;98087.13;;;-0.36;84.29
63881;BME280;50046;46.672;11.152;2022-12-07T00:09:44;98087.97;;;-0.35;84.40
63881;BME280;50046;46.672;11.152;2022-12-07T00:09:54;98087.34;;;-0.37;84.33
63881;BME280;50046;46.672;11.152;2022-12-07T00:10:05;98086.50;;;-0.38;84.43
63881;BME280;50046;46.672;11.152;2022-12-07T00:10:16;98085.50;;;-0.37;84.52
63881;BME280;50046;46.672;11.152;2022-12-07T00:10:26;98085.31;;;-0.35;84.49
63881;BME280;50046;46.672;11.152;2022-12-07T00:10:36;98080.00;;;-0.35;84.42
63881;BME280;50046;46.672;11.152;2022-12-07T00:10:47;98083.47;;;-0.35;84.65
63881;BME280;50046;46.672;11.152;2022-12-07T00:11:14;98082.66;;;-0.35;84.51
63881;BME280;50046;46.672;11.152;2022-12-07T00:11:25;98083.88;;;-0.38;84.72
63881;BME280;50046;46.672;11.152;2022-12-07T00:11:36;98080.75;;;-0.41;84.70
63881;BME280;50046;46.672;11.152;2022-12-07T00:11:50;98075.91;;;-0.38;84.65
63881;BME280;50046;46.672;11.152;2022-12-07T00:12:00;98081.56;;;-0.41;84.58
63881;BME280;50046;46.672;11.152;2022-12-07T00:12:11;98072.41;;;-0.38;84.64
63881;BME280;50046;46.672;11.152;2022-12-07T00:12:21;98079.38;;;-0.37;84.72
63881;BME280;50046;46.672;11.152;2022-12-07T00:12:31;98070.38;;;-0.36;84.90
63881;BME280;50046;46.672;11.152;2022-12-07T00:12:41;98080.19;;;-0.37;84.71
63881;BME280;50046;46.672;11.152;2022-12-07T00:12:52;98079.38;;;-0.37;84.72
63881;BME280;50046;46.672;11.152;2022-12-07T00:13:02;98080.56;;;-0.40;84.70
63881;BME280;50046;46.672;11.152;2022-12-07T00:13:13;98082.22;;;-0.39;84.84
63881;BME280;50046;46.672;11.152;2022-12-07T00:13:23;98072.16;;;-0.44;84.77
63881;BME280;50046;46.672;11.152;2022-12-07T00:13:34;98071.56;;;-0.46;84.89
63881;BME280;50046;46.672;11.152;2022-12-07T00:13:45;98083.78;;;-0.45;84.83
63881;BME280;50046;46.672;11.152;2022-12-07T00:13:58;98076.66;;;-0.44;85.06
63881;BME280;50046;46.672;11.152;2022-12-07T00:14:14;98075.28;;;-0.40;85.01
63881;BME280;50046;46.672;11.152;2022-12-07T00:14:24;98080.56;;;-0.40;85.00
63881;BME280;50046;46.672;11.152;2022-12-07T00:14:35;98078.91;;;-0.41;84.96
63881;BME280;50046;46.672;11.152;2022-12-07T00:14:46;98080.56;;;-0.40;85.06
63881;BME280;50046;46.672;11.152;2022-12-07T00:14:56;98074.47;;;-0.40;85.07
63881;BME280;50046;46.672;11.152;2022-12-07T00:15:07;98084.22;;;-0.41;84.97
63881;BME280;50046;46.672;11.152;2022-12-07T00:15:18;98082.59;;;-0.42;85.23
63881;BME280;50046;46.672;11.152;2022-12-07T00:15:28;98080.13;;;-0.44;85.12
63881;BME280;50046;46.672;11.152;2022-12-07T00:15:38;98081.78;;;-0.42;85.40
63881;BME280;50046;46.672;11.152;2022-12-07T00:15:48;98078.91;;;-0.41;85.40
63881;BME280;50046;46.672;11.152;2022-12-07T00:16:09;98078.91;;;-0.41;85.32
63881;BME280;50046;46.672;11.152;2022-12-07T00:16:22;98080.56;;;-0.40;85.59
63881;BME280;50046;46.672;11.152;2022-12-07T00:16:34;98079.75;;;-0.40;85.38
63881;BME280;50046;46.672;11.152;2022-12-07T00:16:44;98082.22;;;-0.39;85.70
63881;BME280;50046;46.672;11.152;2022-12-07T00:16:55;98073.63;;;-0.41;85.51
63881;BME280;50046;46.672;11.152;2022-12-07T00:17:05;98072.78;;;-0.41;85.52
63881;BME280;50046;46.672;11.152;2022-12-07T00:17:16;98070.78;;;-0.39;85.49
63881;BME280;50046;46.672;11.152;2022-12-07T00:17:26;98079.56;;;-0.39;85.58
63881;BME280;50046;46.672;11.152;2022-12-07T00:17:36;98077.94;;;-0.40;85.77
63881;BME280;50046;46.672;11.152;2022-12-07T00:17:47;98075.28;;;-0.40;85.90
63881;BME280;50046;46.672;11.152;2022-12-07T00:17:57;98070.97;;;-0.41;85.72
63881;BME280;50046;46.672;11.152;2022-12-07T00:18:07;98073.81;;;-0.42;85.64
63881;BME280;50046;46.672;11.152;2022-12-07T00:18:18;98071.81;;;-0.40;85.89
63881;BME280;50046;46.672;11.152;2022-12-07T00:18:28;98077.94;;;-0.40;85.65
63881;BME280;50046;46.672;11.152;2022-12-07T00:18:39;98076.91;;;-0.39;85.77
63881;BME280;50046;46.672;11.152;2022-12-07T00:18:49;98068.31;;;-0.41;85.89
63881;BME280;50046;46.672;11.152;2022-12-07T00:19:00;98070.97;;;-0.41;85.63
63881;BME280;50046;46.672;11.152;2022-12-07T00:19:12;98077.28;;;-0.42;85.61
63881;BME280;50046;46.672;11.152;2022-12-07T00:19:23;98080.13;;;-0.44;85.64
63881;BME280;50046;46.672;11.152;2022-12-07T00:19:33;98075.03;;;-0.45;85.61
63881;BME280;50046;46.672;11.152;2022-12-07T00:19:43;98076.22;;;-0.48;85.67
63881;BME280;50046;46.672;11.152;2022-12-07T00:19:54;98073.56;;;-0.48;85.77
63881;BME280;50046;46.672;11.152;2022-12-07T00:20:05;98071.56;;;-0.46;85.66
63881;BME280;50046;46.672;11.152;2022-12-07T00:20:15;98078.50;;;-0.45;85.68
63881;BME280;50046;46.672;11.152;2022-12-07T00:20:26;98080.97;;;-0.43;85.88
63881;BME280;50046;46.672;11.152;2022-12-07T00:20:36;98078.31;;;-0.43;85.85
63881;BME280;50046;46.672;11.152;2022-12-07T00:20:47;98082.34;;;-0.47;85.59
63881;BME280;50046;46.672;11.152;2022-12-07T00:21:02;98074.22;;;-0.46;85.96
63881;BME280;50046;46.672;11.152;2022-12-07T00:21:21;98077.69;;;-0.45;85.91
63881;BME280;50046;46.672;11.152;2022-12-07T00:21:34;98074.81;;;-0.44;85.98
63881;BME280;50046;46.672;11.152;2022-12-07T00:21:45;98073.00;;;-0.43;86.07
63881;BME280;50046;46.672;11.152;2022-12-07T00:21:55;98076.88;;;-0.46;85.97
63881;BME280;50046;46.672;11.152;2022-12-07T00:22:05;98080.13;;;-0.44;86.20
63881;BME280;50046;46.672;11.152;2022-12-07T00:22:16;98080.13;;;-0.44;86.12
63881;BME280;50046;46.672;11.152;2022-12-07T00:22:26;98079.50;;;-0.46;85.87
63881;BME280;50046;46.672;11.152;2022-12-07T00:22:36;98070.09;;;-0.48;85.82
63881;BME280;50046;46.672;11.152;2022-12-07T00:22:47;98077.84;;;-0.47;86.17
63881;BME280;50046;46.672;11.152;2022-12-07T00:22:57;98074.38;;;-0.47;86.21
63881;BME280;50046;46.672;11.152;2022-12-07T00:23:07;98071.56;;;-0.46;86.16
63881;BME280;50046;46.672;11.152;2022-12-07T00:23:18;98071.75;;;-0.47;86.19
63881;BME280;50046;46.672;11.152;2022-12-07T00:23:29;98067.47;;;-0.48;86.23
63881;BME280;50046;46.672;11.152;2022-12-07T00:23:40;98071.75;;;-0.47;85.98
63881;BME280;50046;46.672;11.152;2022-12-07T00:23:52;98074.56;;;-0.49;86.27
63881;BME280;50046;46.672;11.152;2022-12-07T00:24:04;98077.03;;;-0.47;86.26
63881;BME280;50046;46.672;11.152;2022-12-07T00:24:15;98068.91;;;-0.46;86.21
63881;BME280;50046;46.672;11.152;2022-12-07T00:24:25;98074.00;;;-0.44;86.47
63881;BME280;50046;46.672;11.152;2022-12-07T00:24:35;98071.34;;;-0.44;86.29
63881;BME280;50046;46.672;11.152;2022-12-07T00:24:46;98071.16;;;-0.42;86.34
63881;BME280;50046;46.672;11.152;2022-12-07T00:24:56;98071.97;;;-0.42;86.60
63881;BME280;50046;46.672;11.152;2022-12-07T00:25:07;98071.16;;;-0.42;86.50
63881;BME280;50046;46.672;11.152;2022-12-07T00:25:17;98072.78;;;-0.41;86.76
63881;BME280;50046;46.672;11.152;2022-12-07T00:25:27;98070.16;;;-0.41;86.51
63881;BME280;50046;46.672;11.152;2022-12-07T00:25:38;98069.97;;;-0.40;86.70
63881;BME280;50046;46.672;11.152;2022-12-07T00:25:48;98069.97;;;-0.40;86.75
63881;BME280;50046;46.672;11.152;2022-12-07T00:26:10;98071.97;;;-0.42;86.65
63881;BME280;50046;46.672;11.152;2022-12-07T00:26:29;98067.31;;;-0.40;86.74
63881;BME280;50046;46.672;11.152;2022-12-07T00:26:41;98063.22;;;-0.42;86.60
63881;BME280;50046;46.672;11.152;2022-12-07T00:26:51;98066.69;;;-0.42;86.93
63881;BME280;50046;46.672;11.152;2022-12-07T00:27:02;98064.03;;;-0.42;86.95
63881;BME280;50046;46.672;11.152;2022-12-07T00:27:12;98067.50;;;-0.41;86.75
63881;BME280;50046;46.672;11.152;2022-12-07T00:27:23;98069.97;;;-0.40;86.93
63881;BME280;50046;46.672;11.152;2022-12-07T00:27:33;98062.19;;;-0.41;86.70
63881;BME280;50046;46.672;11.152;2022-12-07T00:27:43;98073.44;;;-0.39;86.95
63881;BME280;50046;46.672;11.152;2022-12-07T00:27:54;98064.44;;;-0.38;86.71
63881;BME280;50046;46.672;11.152;2022-12-07T00:28:07;98066.09;;;-0.37;86.92
63881;BME280;50046;46.672;11.152;2022-12-07T00:28:19;98072.41;;;-0.38;86.59
63881;BME280;50046;46.672;11.152;2022-12-07T00:28:29;98068.53;;;-0.36;86.62
63881;BME280;50046;46.672;11.152;2022-12-07T00:28:40;98064.25;;;-0.37;86.64
63881;BME280;50046;46.672;11.152;2022-12-07T00:28:52;98064.25;;;-0.37;86.70
63881;BME280;50046;46.672;11.152;2022-12-07T00:29:05;98064.91;;;-0.35;86.73
63881;BME280;50046;46.672;11.152;2022-12-07T00:29:18;98063.06;;;-0.34;86.73
63881;BME280;50046;46.672;11.152;2022-12-07T00:29:29;98066.53;;;-0.34;86.57
63881;BME280;50046;46.672;11.152;2022-12-07T00:29:39;98061.22;;;-0.34;87.03
63881;BME280;50046;46.672;11.152;2022-12-07T00:29:50;98063.88;;;-0.34;86.81
63881;BME280;50046;46.672;11.152;2022-12-07T00:30:00;98067.34;;;-0.33;86.75
63881;BME280;50046;46.672;11.152;2022-12-07T00:30:11;98066.75;;;-0.35;86.43
63881;BME280;50046;46.672;11.152;2022-12-07T00:30:22;98062.25;;;-0.35;86.61
63881;BME280;50046;46.672;11.152;2022-12-07T00:30:32;98065.53;;;-0.33;86.91
63881;BME280;50046;46.672;11.152;2022-12-07T00:30:43;98063.06;;;-0.34;86.64
63881;BME280;50046;46.672;11.152;2022-12-07T00:31:00;98062.03;;;-0.33;86.44
63881;BME280;50046;46.672;11.152;2022-12-07T00:31:12;98066.53;;;-0.34;86.89
63881;BME280;50046;46.672;11.152;2022-12-07T00:31:27;98066.34;;;-0.32;86.70
63881;BME280;50046;46.672;11.152;2022-12-07T00:31:38;98071.44;;;-0.31;86.64
63881;BME280;50046;46.672;11.152;2022-12-07T00:31:49;98065.31;;;-0.31;86.56
63881;BME280;50046;46.672;11.152;2022-12-07T00:31:59;98063.47;;;-0.31;86.40
63881;BME280;50046;46.672;11.152;2022-12-07T00:32:09;98065.97;;;-0.29;86.54
63881;BME280;50046;46.672;11.152;2022-12-07T00:32:20;98070.44;;;-0.30;86.52
63881;BME280;50046;46.672;11.152;2022-12-07T00:32:30;98063.31;;;-0.29;86.53
63881;BME280;50046;46.672;11.152;2022-12-07T00:32:40;98063.47;;;-0.31;86.66
63881;BME280;50046;46.672;11.152;2022-12-07T00:32:51;98066.13;;;-0.31;86.50
63881;BME280;50046;46.672;11.152;2022-12-07T00:33:01;98065.16;;;-0.30;86.59
63881;BME280;50046;46.672;11.152;2022-12-07T00:33:11;98062.28;;;-0.28;86.36
63881;BME280;50046;46.672;11.152;2022-12-07T00:33:22;98064.75;;;-0.27;86.38
63881;BME280;50046;46.672;11.152;2022-12-07T00:33:33;98062.28;;;-0.28;86.61
63881;BME280;50046;46.672;11.152;2022-12-07T00:33:44;98063.13;;;-0.28;86.49
63881;BME280;50046;46.672;11.152;2022-12-07T00:33:55;98064.94;;;-0.28;86.33
63881;BME280;50046;46.672;11.152;2022-12-07T00:34:06;98062.72;;;-0.25;86.35
63881;BME280;50046;46.672;11.152;2022-12-07T00:34:19;98061.06;;;-0.26;86.28
63881;BME280;50046;46.672;11.152;2022-12-07T00:34:30;98065.97;;;-0.29;86.25
63881;BME280;50046;46.672;11.152;2022-12-07T00:34:40;98061.03;;;-0.32;86.30
63881;BME280;50046;46.672;11.152;2022-12-07T00:34:50;98059.19;;;-0.32;86.05
63881;BME280;50046;46.672;11.152;2022-12-07T00:35:01;98064.50;;;-0.32;86.23
63881;BME280;50046;46.672;11.152;2022-12-07T00:35:11;98064.50;;;-0.32;86.45
63881;BME280;50046;46.672;11.152;2022-12-07T00:35:22;98064.94;;;-0.28;86.51
63881;BME280;50046;46.672;11.152;2022-12-07T00:35:32;98063.72;;;-0.26;86.24
63881;BME280;50046;46.672;11.152;2022-12-07T00:35:42;98066.38;;;-0.26;86.36
63881;BME280;50046;46.672;11.152;2022-12-07T00:35:59;98057.44;;;-0.25;86.18
63881;BME280;50046;46.672;11.152;2022-12-07T00:36:14;98061.53;;;-0.22;85.99
63881;BME280;50046;46.672;11.152;2022-12-07T00:36:25;98062.34;;;-0.22;86.02
63881;BME280;50046;46.672;11.152;2022-12-07T00:36:35;98057.84;;;-0.21;85.91
63881;BME280;50046;46.672;11.152;2022-12-07T00:36:46;98063.16;;;-0.21;86.20
63881;BME280;50046;46.672;11.152;2022-12-07T00:36:57;98059.50;;;-0.20;85.73
63881;BME280;50046;46.672;11.152;2022-12-07T00:37:07;98061.94;;;-0.18;85.69
63881;BME280;50046;46.672;11.152;2022-12-07T00:37:17;98067.66;;;-0.22;85.84
63881;BME280;50046;46.672;11.152;2022-12-07T00:37:28;98062.34;;;-0.22;85.61
63881;BME280;50046;46.672;11.152;2022-12-07T00:37:38;98067.66;;;-0.22;85.75
63881;BME280;50046;46.672;11.152;2022-12-07T00:37:48;98063.78;;;-0.19;85.73
63881;BME280;50046;46.672;11.152;2022-12-07T00:37:59;98062.97;;;-0.19;85.68
63881;BME280;50046;46.672;11.152;2022-12-07T00:38:09;98065.41;;;-0.18;85.78
63881;BME280;50046;46.672;11.152;2022-12-07T00:38:19;98060.09;;;-0.18;85.76
63881;BME280;50046;46.672;11.152;2022-12-07T00:38:31;98065.25;;;-0.16;85.58
63881;BME280;50046;46.672;11.152;2022-12-07T00:38:42;98056.00;;;-0.20;85.57
63881;BME280;50046;46.672;11.152;2022-12-07T00:38:54;98061.53;;;-0.22;85.46
63881;BME280;50046;46.672;11.152;2022-12-07T00:39:04;98058.88;;;-0.22;85.36
63881;BME280;50046;46.672;11.152;2022-12-07T00:39:15;98052.75;;;-0.23;85.65
63881;BME280;50046;46.672;11.152;2022-12-07T00:39:25;98055.19;;;-0.21;85.49
63881;BME280;50046;46.672;11.152;2022-12-07T00:39:36;98060.50;;;-0.21;85.76
63881;BME280;50046;46.672;11.152;2022-12-07T00:39:46;98059.50;;;-0.20;85.65
63881;BME280;50046;46.672;11.152;2022-12-07T00:39:56;98061.13;;;-0.19;85.87
63881;BME280;50046;46.672;11.152;2022-12-07T00:40:07;98057.44;;;-0.18;85.97
63881;BME280;50046;46.672;11.152;2022-12-07T00:40:17;98057.66;;;-0.19;86.04
63881;BME280;50046;46.672;11.152;2022-12-07T00:40:28;98055.19;;;-0.21;85.73
63881;BME280;50046;46.672;11.152;2022-12-07T00:40:38;98067.25;;;-0.18;85.81
63881;BME280;50046;46.672;11.152;2022-12-07T00:41:00;98062.97;;;-0.19;85.99
63881;BME280;50046;46.672;11.152;2022-12-07T00:41:12;98059.06;;;-0.24;85.48
63881;BME280;50046;46.672;11.152;2022-12-07T00:41:25;98059.25;;;-0.25;85.78
63881;BME280;50046;46.672;11.152;2022-12-07T00:41:35;98061.91;;;-0.25;85.70
63881;BME280;50046;46.672;11.152;2022-12-07T00:41:46;98060.09;;;-0.25;85.51
63881;BME280;50046;46.672;11.152;2022-12-07T00:41:56;98063.72;;;-0.26;85.71
63881;BME280;50046;46.672;11.152;2022-12-07T00:42:06;98062.72;;;-0.25;85.81
63881;BME280;50046;46.672;11.152;2022-12-07T00:42:17;98061.91;;;-0.25;86.03
63881;BME280;50046;46.672;11.152;2022-12-07T00:42:27;98055.78;;;-0.26;85.70
63881;BME280;50046;46.672;11.152;2022-12-07T00:42:37;98066.38;;;-0.26;85.84
63881;BME280;50046;46.672;11.152;2022-12-07T00:42:48;98055.78;;;-0.26;85.92
63881;BME280;50046;46.672;11.152;2022-12-07T00:42:58;98057.44;;;-0.25;86.04
63881;BME280;50046;46.672;11.152;2022-12-07T00:43:08;98055.59;;;-0.24;85.93
63881;BME280;50046;46.672;11.152;2022-12-07T00:43:18;98055.41;;;-0.23;86.26
63881;BME280;50046;46.672;11.152;2022-12-07T00:43:29;98053.75;;;-0.24;86.12
63881;BME280;50046;46.672;11.152;2022-12-07T00:43:41;98060.72;;;-0.23;85.92
63881;BME280;50046;46.672;11.152;2022-12-07T00:43:52;98057.22;;;-0.23;85.85
63881;BME280;50046;46.672;11.152;2022-12-07T00:44:03;98057.22;;;-0.23;86.02
63881;BME280;50046;46.672;11.152;2022-12-07T00:44:13;98052.13;;;-0.25;85.99
63881;BME280;50046;46.672;11.152;2022-12-07T00:44:24;98055.78;;;-0.26;85.66
63881;BME280;50046;46.672;11.152;2022-12-07T00:44:34;98055.41;;;-0.23;85.95
63881;BME280;50046;46.672;11.152;2022-12-07T00:44:44;98056.63;;;-0.18;85.66
63881;BME280;50046;46.672;11.152;2022-12-07T00:44:55;98057.03;;;-0.22;85.65
63881;BME280;50046;46.672;11.152;2022-12-07T00:45:06;98055.41;;;-0.23;85.47
63881;BME280;50046;46.672;11.152;2022-12-07T00:45:16;98059.25;;;-0.25;85.09
63881;BME280;50046;46.672;11.152;2022-12-07T00:45:26;98060.09;;;-0.25;84.99
63881;BME280;50046;46.672;11.152;2022-12-07T00:45:37;98056.78;;;-0.27;84.93
63881;BME280;50046;46.672;11.152;2022-12-07T00:45:49;98059.44;;;-0.27;85.15
63881;BME280;50046;46.672;11.152;2022-12-07T00:45:59;98055.16;;;-0.28;85.17
63881;BME280;50046;46.672;11.152;2022-12-07T00:46:10;98060.25;;;-0.26;85.00
63881;BME280;50046;46.672;11.152;2022-12-07T00:46:22;98054.94;;;-0.26;84.94
63881;BME280;50046;46.672;11.152;2022-12-07T00:46:32;98064.94;;;-0.28;84.86
63881;BME280;50046;46.672;11.152;2022-12-07T00:46:43;98052.50;;;-0.28;84.77
63881;BME280;50046;46.672;11.152;2022-12-07T00:46:55;98060.09;;;-0.25;84.90
63881;BME280;50046;46.672;11.152;2022-12-07T00:47:05;98057.59;;;-0.26;84.90
63881;BME280;50046;46.672;11.152;2022-12-07T00:47:16;98061.06;;;-0.26;85.01
63881;BME280;50046;46.672;11.152;2022-12-07T00:47:26;98057.44;;;-0.25;84.85
63881;BME280;50046;46.672;11.152;2022-12-07T00:47:36;98056.63;;;-0.25;84.96
63881;BME280;50046;46.672;11.152;2022-12-07T00:47:47;98060.72;;;-0.23;84.87
63881;BME280;50046;46.672;11.152;2022-12-07T00:47:57;98061.53;;;-0.22;84.72
63881;BME280;50046;46.672;11.152;2022-12-07T00:48:07;98058.06;;;-0.23;84.77
63881;BME280;50046;46.672;11.152;2022-12-07T00:48:18;98052.75;;;-0.23;84.85
63881;BME280;50046;46.672;11.152;2022-12-07T00:48:29;98059.69;;;-0.22;84.74
63881;BME280;50046;46.672;11.152;2022-12-07T00:48:40;98058.25;;;-0.24;84.42
63881;BME280;50046;46.672;11.152;2022-12-07T00:48:51;98058.88;;;-0.22;84.44
63881;BME280;50046;46.672;11.152;2022-12-07T00:49:02;98064.19;;;-0.22;84.69
63881;BME280;50046;46.672;11.152;2022-12-07T00:49:13;98065.00;;;-0.22;84.50
63881;BME280;50046;46.672;11.152;2022-12-07T00:49:23;98057.84;;;-0.21;84.13
63881;BME280;50046;46.672;11.152;2022-12-07T00:49:33;98062.59;;;-0.16;84.31
63881;BME280;50046;46.672;11.152;2022-12-07T00:49:44;98052.34;;;-0.19;84.01
63881;BME280;50046;46.672;11.152;2022-12-07T00:49:54;98062.75;;;-0.18;84.13
63881;BME280;50046;46.672;11.152;2022-12-07T00:50:05;98059.53;;;-0.13;84.04
63881;BME280;50046;46.672;11.152;2022-12-07T00:50:16;98058.91;;;-0.15;83.91
63881;BME280;50046;46.672;11.152;2022-12-07T00:50:26;98062.97;;;-0.19;83.78
63881;BME280;50046;46.672;11.152;2022-12-07T00:50:37;98059.69;;;-0.22;84.05
63881;BME280;50046;46.672;11.152;2022-12-07T00:50:47;98055.41;;;-0.23;84.16
63881;BME280;50046;46.672;11.152;2022-12-07T00:50:58;98061.53;;;-0.22;84.29
63881;BME280;50046;46.672;11.152;2022-12-07T00:51:11;98059.06;;;-0.24;84.38
63881;BME280;50046;46.672;11.152;2022-12-07T00:51:23;98062.34;;;-0.22;84.33
63881;BME280;50046;46.672;11.152;2022-12-07T00:51:34;98058.66;;;-0.20;84.49
63881;BME280;50046;46.672;11.152;2022-12-07T00:51:44;98062.34;;;-0.22;84.53
63881;BME280;50046;46.672;11.152;2022-12-07T00:51:57;98061.31;;;-0.20;84.42
63881;BME280;50046;46.672;11.152;2022-12-07T00:52:08;98059.88;;;-0.23;84.43
63881;BME280;50046;46.672;11.152;2022-12-07T00:52:18;98065.19;;;-0.23;84.54
63881;BME280;50046;46.672;11.152;2022-12-07T00:52:28;98063.38;;;-0.23;84.47
63881;BME280;50046;46.672;11.152;2022-12-07T00:52:39;98057.22;;;-0.23;84.57
63881;BME280;50046;46.672;11.152;2022-12-07T00:52:49;98064.19;;;-0.22;84.52
63881;BME280;50046;46.672;11.152;2022-12-07T00:52:59;98061.53;;;-0.22;84.61
63881;BME280;50046;46.672;11.152;2022-12-07T00:53:10;98060.72;;;-0.23;84.53
63881;BME280;50046;46.672;11.152;2022-12-07T00:53:20;98067.66;;;-0.22;84.76
63881;BME280;50046;46.672;11.152;2022-12-07T00:53:31;98063.97;;;-0.20;84.81
63881;BME280;50046;46.672;11.152;2022-12-07T00:53:41;98062.16;;;-0.20;84.68
63881;BME280;50046;46.672;11.152;2022-12-07T00:53:52;98062.34;;;-0.22;84.49
63881;BME280;50046;46.672;11.152;2022-12-07T00:54:03;98067.84;;;-0.23;84.33
63881;BME280;50046;46.672;11.152;2022-12-07T00:54:13;98059.25;;;-0.25;84.41
63881;BME280;50046;46.672;11.152;2022-12-07T00:54:24;98062.53;;;-0.23;84.37
63881;BME280;50046;46.672;11.152;2022-12-07T00:54:34;98062.53;;;-0.23;84.63
63881;BME280;50046;46.672;11.152;2022-12-07T00:54:44;98062.34;;;-0.22;84.80
63881;BME280;50046;46.672;11.152;2022-12-07T00:54:55;98056.22;;;-0.22;84.86
63881;BME280;50046;46.672;11.152;2022-12-07T00:55:05;98057.22;;;-0.23;84.54
63881;BME280;50046;46.672;11.152;2022-12-07T00:55:16;98060.72;;;-0.23;84.79
63881;BME280;50046;46.672;11.152;2022-12-07T00:55:26;98064.38;;;-0.24;84.66
63881;BME280;50046;46.672;11.152;2022-12-07T00:55:36;98059.25;;;-0.25;84.69
63881;BME280;50046;46.672;11.152;2022-12-07T00:55:47;98058.06;;;-0.23;85.07
63881;BME280;50046;46.672;11.152;2022-12-07T00:55:57;98057.84;;;-0.21;84.94
63881;BME280;50046;46.672;11.152;2022-12-07T00:56:09;98068.28;;;-0.19;84.96
63881;BME280;50046;46.672;11.152;2022-12-07T00:56:26;98058.66;;;-0.20;84.91
63881;BME280;50046;46.672;11.152;2022-12-07T00:56:37;98060.72;;;-0.23;84.86
63881;BME280;50046;46.672;11.152;2022-12-07T00:56:47;98067.84;;;-0.23;84.81
63881;BME280;50046;46.672;11.152;2022-12-07T00:56:57;98057.84;;;-0.21;84.88
63881;BME280;50046;46.672;11.152;2022-12-07T00:57:08;98059.28;;;-0.18;85.16
63881;BME280;50046;46.672;11.152;2022-12-07T00:57:18;98057.28;;;-0.16;84.87
63881;BME280;50046;46.672;11.152;2022-12-07T00:57:30;98057.91;;;-0.14;85.03
63881;BME280;50046;46.672;11.152;2022-12-07T00:57:40;98058.09;;;-0.16;84.82
63881;BME280;50046;46.672;11.152;2022-12-07T00:57:51;98053.81;;;-0.17;84.73
63881;BME280;50046;46.672;11.152;2022-12-07T00:58:02;98059.53;;;-0.13;84.63
63881;BME280;50046;46.672;11.152;2022-12-07T00:58:12;98062.19;;;-0.13;84.53